Accueil
METAR-TAF:

METAR-TAF

Aéroports :

Aurigny,

Aéroport d'Aurigny

latitude: 49-43N, longitude: 002-12W, altitude: 71 m

Observation

Le bulletin a été fait il y a 42 minutes, à 16:50 UTC
Vent 12 kt de ouest/nord-ouest
Température 14°C
Humidité 77%
Pression 1018 hPa
Visibilité 10 km ou plus
Quelques nuages à une hauteur de 800 ft

METAR: EGJA 211650Z 29012KT 9999 FEW008 14/10 Q1018

Heure: 18:32 (17:32 UTC)

Prévision

Le bulletin a été fait il y a 3 heures et 36 minutes, à 13:56 UTC
Prévision valable du 21 à 15 UTC au 21 à 19 UTC
Vent 12 kt de ouest/nord-ouest
Visibilité 10 km ou plus
Quelques nuages à une hauteur de 900 ft
Nuages épars à une hauteur de 1800 ft

TAF: EGJA 211356Z 2115/2119 30012KT 9999 FEW009 SCT018

Observations et prévisions météorologiques de plus de 4000 aéroports (messages METAR et TAF).

Les stations disponibles sont représentées par des disques jaunes et rouges sur la carte.

Passer la souris dessus pour voir le nom de la station.

Cliquer dessus pour voir les observations et prévisions météorologiques.

Pour changer de carte: cliquez sur les boutons verts avec une croix noire pour zoomer, sur le bouton vert avec un tiret pour effectuer un zoom arrière, ou sur les flèches vertes pour les cartes adjacentes.


METAR-TAF: